sensor_id;sensor_type;location;lat;lon;timestamp;pressure;altitude;pressure_sealevel;temperature;humidity
11329;BME280;5719;42.714;23.732;2024-02-14T00:01:56;94054.28;;;4.66;100.00
11329;BME280;5719;42.714;23.732;2024-02-14T00:04:24;94055.91;;;4.67;100.00
11329;BME280;5719;42.714;23.732;2024-02-14T00:06:51;94051.97;;;4.62;100.00
11329;BME280;5719;42.714;23.732;2024-02-14T00:09:18;94061.38;;;4.61;100.00
11329;BME280;5719;42.714;23.732;2024-02-14T00:11:45;94063.28;;;4.58;100.00
11329;BME280;5719;42.714;23.732;2024-02-14T00:14:13;94065.00;;;4.57;100.00
11329;BME280;5719;42.714;23.732;2024-02-14T00:16:40;94059.72;;;4.60;100.00
11329;BME280;5719;42.714;23.732;2024-02-14T00:19:07;94064.00;;;4.60;100.00
11329;BME280;5719;42.714;23.732;2024-02-14T00:21:35;94067.16;;;4.65;100.00
11329;BME280;5719;42.714;23.732;2024-02-14T00:24:02;94068.47;;;4.56;100.00
11329;BME280;5719;42.714;23.732;2024-02-14T00:26:30;94073.28;;;4.62;100.00
11329;BME280;5719;42.714;23.732;2024-02-14T00:28:57;94075.25;;;4.57;100.00
11329;BME280;5719;42.714;23.732;2024-02-14T00:34:45;94083.94;;;4.55;100.00
11329;BME280;5719;42.714;23.732;2024-02-14T00:37:13;94080.31;;;4.59;100.00
11329;BME280;5719;42.714;23.732;2024-02-14T00:39:40;94081.38;;;4.55;100.00
11329;BME280;5719;42.714;23.732;2024-02-14T00:42:06;94083.41;;;4.64;100.00
11329;BME280;5719;42.714;23.732;2024-02-14T00:44:33;94072.94;;;4.53;100.00
11329;BME280;5719;42.714;23.732;2024-02-14T00:53:51;94076.25;;;4.55;100.00
11329;BME280;5719;42.714;23.732;2024-02-14T00:56:18;94077.41;;;4.49;100.00
11329;BME280;5719;42.714;23.732;2024-02-14T00:58:45;94072.81;;;4.40;100.00
11329;BME280;5719;42.714;23.732;2024-02-14T01:01:12;94075.00;;;4.46;100.00
11329;BME280;5719;42.714;23.732;2024-02-14T01:03:38;94076.09;;;4.42;100.00
11329;BME280;5719;42.714;23.732;2024-02-14T01:12:52;94089.66;;;4.44;100.00
11329;BME280;5719;42.714;23.732;2024-02-14T01:22:02;94079.22;;;4.47;100.00
11329;BME280;5719;42.714;23.732;2024-02-14T01:24:29;94087.22;;;4.41;100.00
11329;BME280;5719;42.714;23.732;2024-02-14T01:26:56;94076.19;;;4.40;100.00
11329;BME280;5719;42.714;23.732;2024-02-14T01:29:24;94082.28;;;4.38;100.00
11329;BME280;5719;42.714;23.732;2024-02-14T01:31:51;94079.22;;;4.47;100.00
11329;BME280;5719;42.714;23.732;2024-02-14T01:34:18;94073.34;;;4.45;100.00
11329;BME280;5719;42.714;23.732;2024-02-14T01:36:45;94076.56;;;4.49;100.00
11329;BME280;5719;42.714;23.732;2024-02-14T01:39:12;94085.97;;;4.48;100.00
11329;BME280;5719;42.714;23.732;2024-02-14T01:41:44;94081.28;;;4.56;100.00
11329;BME280;5719;42.714;23.732;2024-02-14T01:44:11;94081.09;;;4.59;100.00
11329;BME280;5719;42.714;23.732;2024-02-14T01:46:39;94079.06;;;4.50;100.00
11329;BME280;5719;42.714;23.732;2024-02-14T01:49:06;94077.56;;;4.46;100.00
11329;BME280;5719;42.714;23.732;2024-02-14T01:51:34;94077.09;;;4.55;100.00
11329;BME280;5719;42.714;23.732;2024-02-14T01:54:02;94059.25;;;4.38;100.00
11329;BME280;5719;42.714;23.732;2024-02-14T01:56:29;94080.13;;;4.46;100.00
11329;BME280;5719;42.714;23.732;2024-02-14T01:58:56;94066.59;;;4.44;100.00
11329;BME280;5719;42.714;23.732;2024-02-14T02:01:24;94077.97;;;4.54;100.00
11329;BME280;5719;42.714;23.732;2024-02-14T02:03:53;94082.44;;;4.51;100.00
11329;BME280;5719;42.714;23.732;2024-02-14T02:06:19;94075.44;;;4.54;100.00
11329;BME280;5719;42.714;23.732;2024-02-14T02:08:48;94073.13;;;4.34;100.00
11329;BME280;5719;42.714;23.732;2024-02-14T02:11:15;94072.47;;;4.46;100.00
11329;BME280;5719;42.714;23.732;2024-02-14T02:13:42;94077.22;;;4.52;100.00
11329;BME280;5719;42.714;23.732;2024-02-14T02:16:09;94084.00;;;4.53;100.00
11329;BME280;5719;42.714;23.732;2024-02-14T02:18:36;94074.94;;;4.48;100.00
11329;BME280;5719;42.714;23.732;2024-02-14T02:21:06;94085.09;;;4.49;100.00
11329;BME280;5719;42.714;23.732;2024-02-14T02:26:56;94098.88;;;4.62;100.00
11329;BME280;5719;42.714;23.732;2024-02-14T02:29:23;94103.72;;;4.67;100.00
11329;BME280;5719;42.714;23.732;2024-02-14T02:31:50;94105.31;;;4.69;100.00
11329;BME280;5719;42.714;23.732;2024-02-14T02:34:17;94108.75;;;4.68;100.00
11329;BME280;5719;42.714;23.732;2024-02-14T02:36:44;94106.56;;;4.62;100.00
11329;BME280;5719;42.714;23.732;2024-02-14T02:39:11;94112.22;;;4.67;100.00
11329;BME280;5719;42.714;23.732;2024-02-14T02:41:39;94121.97;;;4.61;100.00
11329;BME280;5719;42.714;23.732;2024-02-14T02:44:07;94114.72;;;4.69;100.00
11329;BME280;5719;42.714;23.732;2024-02-14T02:46:34;94123.47;;;4.65;100.00
11329;BME280;5719;42.714;23.732;2024-02-14T02:49:01;94132.22;;;4.76;100.00
11329;BME280;5719;42.714;23.732;2024-02-14T02:51:27;94111.72;;;4.76;100.00
11329;BME280;5719;42.714;23.732;2024-02-14T02:53:55;94125.78;;;4.99;100.00
11329;BME280;5719;42.714;23.732;2024-02-14T02:56:22;94132.25;;;5.06;100.00
11329;BME280;5719;42.714;23.732;2024-02-14T02:58:52;94127.03;;;5.08;100.00
11329;BME280;5719;42.714;23.732;2024-02-14T03:01:21;94134.53;;;5.11;100.00
11329;BME280;5719;42.714;23.732;2024-02-14T03:03:50;94124.81;;;5.02;100.00
11329;BME280;5719;42.714;23.732;2024-02-14T03:06:17;94135.38;;;4.95;100.00
11329;BME280;5719;42.714;23.732;2024-02-14T03:08:43;94124.72;;;5.03;100.00
11329;BME280;5719;42.714;23.732;2024-02-14T03:11:10;94123.00;;;5.04;100.00
11329;BME280;5719;42.714;23.732;2024-02-14T03:13:37;94138.41;;;5.18;100.00
11329;BME280;5719;42.714;23.732;2024-02-14T03:16:06;94138.06;;;5.24;100.00
11329;BME280;5719;42.714;23.732;2024-02-14T03:18:34;94127.72;;;5.25;100.00
11329;BME280;5719;42.714;23.732;2024-02-14T03:21:02;94137.09;;;5.40;100.00
11329;BME280;5719;42.714;23.732;2024-02-14T03:23:31;94142.34;;;5.39;100.00
11329;BME280;5719;42.714;23.732;2024-02-14T03:25:58;94151.41;;;5.44;100.00
11329;BME280;5719;42.714;23.732;2024-02-14T03:28:25;94129.13;;;5.31;100.00
11329;BME280;5719;42.714;23.732;2024-02-14T03:31:14;94159.69;;;5.34;100.00
11329;BME280;5719;42.714;23.732;2024-02-14T03:33:42;94169.69;;;5.09;100.00
11329;BME280;5719;42.714;23.732;2024-02-14T03:36:10;94162.81;;;5.09;100.00
11329;BME280;5719;42.714;23.732;2024-02-14T03:38:36;94170.22;;;5.14;100.00
11329;BME280;5719;42.714;23.732;2024-02-14T03:41:05;94174.28;;;5.18;100.00
11329;BME280;5719;42.714;23.732;2024-02-14T03:43:32;94175.16;;;5.03;100.00
11329;BME280;5719;42.714;23.732;2024-02-14T03:45:59;94166.56;;;4.88;100.00
11329;BME280;5719;42.714;23.732;2024-02-14T03:48:26;94175.28;;;5.00;100.00
11329;BME280;5719;42.714;23.732;2024-02-14T03:50:54;94175.66;;;4.93;100.00
11329;BME280;5719;42.714;23.732;2024-02-14T03:53:22;94179.59;;;4.99;100.00
11329;BME280;5719;42.714;23.732;2024-02-14T03:55:49;94180.09;;;5.06;100.00
11329;BME280;5719;42.714;23.732;2024-02-14T03:58:18;94166.78;;;4.99;100.00
11329;BME280;5719;42.714;23.732;2024-02-14T04:00:48;94184.22;;;5.08;100.00
11329;BME280;5719;42.714;23.732;2024-02-14T04:03:16;94188.16;;;5.14;100.00
11329;BME280;5719;42.714;23.732;2024-02-14T04:05:43;94189.00;;;5.14;100.00
11329;BME280;5719;42.714;23.732;2024-02-14T04:08:11;94202.13;;;5.24;100.00
11329;BME280;5719;42.714;23.732;2024-02-14T04:10:38;94203.69;;;5.26;100.00
11329;BME280;5719;42.714;23.732;2024-02-14T04:13:05;94203.69;;;5.26;100.00
11329;BME280;5719;42.714;23.732;2024-02-14T04:15:32;94207.44;;;5.21;100.00
11329;BME280;5719;42.714;23.732;2024-02-14T04:17:59;94213.28;;;5.23;100.00
11329;BME280;5719;42.714;23.732;2024-02-14T04:20:28;94214.41;;;5.33;100.00
11329;BME280;5719;42.714;23.732;2024-02-14T04:22:55;94198.81;;;5.22;100.00
11329;BME280;5719;42.714;23.732;2024-02-14T04:25:25;94206.22;;;4.97;100.00
11329;BME280;5719;42.714;23.732;2024-02-14T04:27:52;94217.78;;;5.04;100.00
11329;BME280;5719;42.714;23.732;2024-02-14T04:30:37;94197.31;;;4.88;100.00
11329;BME280;5719;42.714;23.732;2024-02-14T04:33:04;94218.13;;;4.98;100.00
11329;BME280;5719;42.714;23.732;2024-02-14T04:35:31;94222.22;;;5.00;100.00
11329;BME280;5719;42.714;23.732;2024-02-14T04:37:59;94205.22;;;4.83;100.00
11329;BME280;5719;42.714;23.732;2024-02-14T04:40:27;94224.06;;;4.98;100.00
11329;BME280;5719;42.714;23.732;2024-02-14T04:42:54;94222.00;;;5.05;100.00
11329;BME280;5719;42.714;23.732;2024-02-14T04:45:21;94231.66;;;5.00;100.00
11329;BME280;5719;42.714;23.732;2024-02-14T04:47:48;94230.56;;;5.04;100.00
11329;BME280;5719;42.714;23.732;2024-02-14T04:50:15;94230.34;;;5.08;100.00
11329;BME280;5719;42.714;23.732;2024-02-14T04:52:41;94228.44;;;5.12;100.00
11329;BME280;5719;42.714;23.732;2024-02-14T04:55:08;94233.31;;;5.16;100.00
11329;BME280;5719;42.714;23.732;2024-02-14T04:57:37;94227.53;;;5.13;100.00
11329;BME280;5719;42.714;23.732;2024-02-14T05:00:05;94245.59;;;5.25;100.00
11329;BME280;5719;42.714;23.732;2024-02-14T05:02:34;94245.69;;;5.24;100.00
11329;BME280;5719;42.714;23.732;2024-02-14T05:05:01;94247.44;;;5.23;100.00
11329;BME280;5719;42.714;23.732;2024-02-14T05:07:28;94254.13;;;5.26;100.00
11329;BME280;5719;42.714;23.732;2024-02-14T05:09:55;94254.88;;;5.28;100.00
11329;BME280;5719;42.714;23.732;2024-02-14T05:12:22;94258.25;;;5.28;100.00
11329;BME280;5719;42.714;23.732;2024-02-14T05:14:50;94265.84;;;5.30;100.00
11329;BME280;5719;42.714;23.732;2024-02-14T05:17:17;94266.50;;;5.33;100.00
11329;BME280;5719;42.714;23.732;2024-02-14T05:19:43;94267.34;;;5.34;100.00
11329;BME280;5719;42.714;23.732;2024-02-14T05:22:10;94256.38;;;5.16;100.00
11329;BME280;5719;42.714;23.732;2024-02-14T05:24:37;94268.34;;;5.16;100.00
11329;BME280;5719;42.714;23.732;2024-02-14T05:27:04;94287.59;;;5.07;100.00
11329;BME280;5719;42.714;23.732;2024-02-14T05:29:31;94290.91;;;5.09;100.00
11329;BME280;5719;42.714;23.732;2024-02-14T05:32:00;94285.19;;;5.04;100.00
11329;BME280;5719;42.714;23.732;2024-02-14T05:34:26;94292.06;;;5.04;100.00
11329;BME280;5719;42.714;23.732;2024-02-14T05:36:53;94292.88;;;5.04;100.00
11329;BME280;5719;42.714;23.732;2024-02-14T05:39:20;94299.69;;;5.05;100.00
11329;BME280;5719;42.714;23.732;2024-02-14T05:41:47;94296.22;;;5.06;100.00
11329;BME280;5719;42.714;23.732;2024-02-14T05:44:14;94302.47;;;5.01;100.00
11329;BME280;5719;42.714;23.732;2024-02-14T05:56:47;94313.94;;;4.93;100.00
11329;BME280;5719;42.714;23.732;2024-02-14T05:59:14;94312.28;;;4.92;100.00
11329;BME280;5719;42.714;23.732;2024-02-14T06:01:41;94322.38;;;4.95;100.00
11329;BME280;5719;42.714;23.732;2024-02-14T06:04:07;94307.50;;;4.86;100.00
11329;BME280;5719;42.714;23.732;2024-02-14T06:06:34;94333.03;;;5.04;100.00
11329;BME280;5719;42.714;23.732;2024-02-14T06:09:01;94327.94;;;5.04;100.00
11329;BME280;5719;42.714;23.732;2024-02-14T06:11:43;94336.28;;;5.07;100.00
11329;BME280;5719;42.714;23.732;2024-02-14T06:14:12;94341.66;;;5.03;100.00
11329;BME280;5719;42.714;23.732;2024-02-14T06:16:39;94341.22;;;5.10;100.00
11329;BME280;5719;42.714;23.732;2024-02-14T06:19:06;94347.72;;;5.17;100.00
11329;BME280;5719;42.714;23.732;2024-02-14T06:21:32;94340.59;;;5.22;100.00
11329;BME280;5719;42.714;23.732;2024-02-14T06:24:00;94347.63;;;5.34;100.00
11329;BME280;5719;42.714;23.732;2024-02-14T06:26:29;94361.09;;;5.38;100.00
11329;BME280;5719;42.714;23.732;2024-02-14T06:28:56;94338.03;;;5.22;100.00
11329;BME280;5719;42.714;23.732;2024-02-14T06:31:24;94354.72;;;5.29;100.00
11329;BME280;5719;42.714;23.732;2024-02-14T06:33:51;94361.09;;;5.22;100.00
11329;BME280;5719;42.714;23.732;2024-02-14T06:36:41;94363.47;;;5.25;100.00
11329;BME280;5719;42.714;23.732;2024-02-14T06:39:07;94366.72;;;5.29;100.00
11329;BME280;5719;42.714;23.732;2024-02-14T06:41:34;94361.50;;;5.30;100.00
11329;BME280;5719;42.714;23.732;2024-02-14T06:44:01;94374.75;;;5.38;100.00
11329;BME280;5719;42.714;23.732;2024-02-14T06:46:29;94362.78;;;5.39;100.00
11329;BME280;5719;42.714;23.732;2024-02-14T06:48:56;94371.78;;;5.46;100.00
11329;BME280;5719;42.714;23.732;2024-02-14T06:51:23;94372.34;;;5.51;100.00
11329;BME280;5719;42.714;23.732;2024-02-14T06:53:50;94370.19;;;5.59;100.00
11329;BME280;5719;42.714;23.732;2024-02-14T06:56:17;94377.38;;;5.68;100.00
11329;BME280;5719;42.714;23.732;2024-02-14T06:58:49;94390.78;;;5.73;100.00
11329;BME280;5719;42.714;23.732;2024-02-14T07:01:18;94384.75;;;5.74;100.00
11329;BME280;5719;42.714;23.732;2024-02-14T07:03:48;94384.41;;;5.80;100.00
11329;BME280;5719;42.714;23.732;2024-02-14T07:06:16;94385.00;;;5.85;100.00
11329;BME280;5719;42.714;23.732;2024-02-14T07:08:43;94382.59;;;5.82;100.00
11329;BME280;5719;42.714;23.732;2024-02-14T07:11:10;94384.59;;;5.77;100.00
11329;BME280;5719;42.714;23.732;2024-02-14T07:13:37;94395.50;;;5.65;100.00
11329;BME280;5719;42.714;23.732;2024-02-14T07:16:04;94396.00;;;5.56;100.00
11329;BME280;5719;42.714;23.732;2024-02-14T07:18:33;94397.50;;;5.60;100.00
11329;BME280;5719;42.714;23.732;2024-02-14T07:21:01;94403.78;;;5.70;100.00
11329;BME280;5719;42.714;23.732;2024-02-14T07:23:31;94403.38;;;5.78;100.00
11329;BME280;5719;42.714;23.732;2024-02-14T07:25:58;94404.69;;;5.69;100.00
11329;BME280;5719;42.714;23.732;2024-02-14T07:28:24;94409.81;;;5.69;100.00
11329;BME280;5719;42.714;23.732;2024-02-14T07:30:51;94401.22;;;5.70;100.00
11329;BME280;5719;42.714;23.732;2024-02-14T07:33:18;94419.25;;;5.84;100.00
11329;BME280;5719;42.714;23.732;2024-02-14T07:36:01;94406.28;;;5.87;100.00
11329;BME280;5719;42.714;23.732;2024-02-14T07:38:28;94423.47;;;6.01;100.00
11329;BME280;5719;42.714;23.732;2024-02-14T07:40:55;94424.41;;;6.00;100.00
11329;BME280;5719;42.714;23.732;2024-02-14T07:43:21;94429.94;;;6.08;100.00
11329;BME280;5719;42.714;23.732;2024-02-14T07:45:48;94428.53;;;6.03;100.00
11329;BME280;5719;42.714;23.732;2024-02-14T07:48:15;94435.81;;;5.95;100.00
11329;BME280;5719;42.714;23.732;2024-02-14T07:50:42;94437.41;;;5.97;100.00
11329;BME280;5719;42.714;23.732;2024-02-14T07:53:10;94438.03;;;5.85;100.00
11329;BME280;5719;42.714;23.732;2024-02-14T07:55:46;94437.06;;;5.87;100.00
11329;BME280;5719;42.714;23.732;2024-02-14T07:58:14;94428.84;;;5.81;100.00
11329;BME280;5719;42.714;23.732;2024-02-14T08:00:41;94444.16;;;5.82;100.00
11329;BME280;5719;42.714;23.732;2024-02-14T08:03:08;94442.50;;;5.81;100.00
11329;BME280;5719;42.714;23.732;2024-02-14T08:05:35;94447.31;;;5.87;100.00
11329;BME280;5719;42.714;23.732;2024-02-14T08:08:02;94432.66;;;5.74;100.00
11329;BME280;5719;42.714;23.732;2024-02-14T08:10:30;94450.00;;;5.86;100.00
11329;BME280;5719;42.714;23.732;2024-02-14T08:12:57;94422.47;;;5.72;100.00
11329;BME280;5719;42.714;23.732;2024-02-14T08:15:24;94458.50;;;5.86;100.00
11329;BME280;5719;42.714;23.732;2024-02-14T08:17:51;94445.34;;;5.93;100.00
11329;BME280;5719;42.714;23.732;2024-02-14T08:20:21;94447.81;;;6.10;100.00
11329;BME280;5719;42.714;23.732;2024-02-14T08:22:48;94450.25;;;6.27;100.00
11329;BME280;5719;42.714;23.732;2024-02-14T08:25:15;94454.91;;;6.36;100.00
11329;BME280;5719;42.714;23.732;2024-02-14T08:27:43;94446.75;;;6.44;100.00
11329;BME280;5719;42.714;23.732;2024-02-14T08:30:10;94450.63;;;6.51;100.00
11329;BME280;5719;42.714;23.732;2024-02-14T08:32:37;94455.84;;;6.49;100.00
11329;BME280;5719;42.714;23.732;2024-02-14T08:35:08;94450.25;;;6.43;100.00
11329;BME280;5719;42.714;23.732;2024-02-14T08:37:35;94455.94;;;6.48;100.00
11329;BME280;5719;42.714;23.732;2024-02-14T08:40:04;94435.84;;;6.40;100.00
11329;BME280;5719;42.714;23.732;2024-02-14T08:42:32;94451.31;;;6.38;100.00
11329;BME280;5719;42.714;23.732;2024-02-14T08:45:00;94458.69;;;6.45;100.00
11329;BME280;5719;42.714;23.732;2024-02-14T08:47:28;94462.16;;;6.44;100.00
11329;BME280;5719;42.714;23.732;2024-02-14T08:49:54;94451.97;;;6.42;100.00
11329;BME280;5719;42.714;23.732;2024-02-14T08:52:21;94457.22;;;6.40;100.00
11329;BME280;5719;42.714;23.732;2024-02-14T08:54:48;94482.28;;;6.51;100.00
11329;BME280;5719;42.714;23.732;2024-02-14T08:57:15;94479.25;;;6.45;100.00
11329;BME280;5719;42.714;23.732;2024-02-14T08:59:44;94478.41;;;6.44;100.00
11329;BME280;5719;42.714;23.732;2024-02-14T09:02:14;94457.63;;;6.33;100.00
11329;BME280;5719;42.714;23.732;2024-02-14T09:04:42;94484.88;;;6.35;100.00
11329;BME280;5719;42.714;23.732;2024-02-14T09:07:12;94487.19;;;6.40;100.00
11329;BME280;5719;42.714;23.732;2024-02-14T09:09:39;94487.91;;;6.42;100.00
11329;BME280;5719;42.714;23.732;2024-02-14T09:12:06;94489.19;;;6.35;100.00
11329;BME280;5719;42.714;23.732;2024-02-14T09:14:33;94480.34;;;6.25;100.00
11329;BME280;5719;42.714;23.732;2024-02-14T09:17:00;94489.69;;;6.26;100.00
11329;BME280;5719;42.714;23.732;2024-02-14T09:19:28;94494.00;;;6.25;100.00
11329;BME280;5719;42.714;23.732;2024-02-14T09:21:55;94499.38;;;6.05;100.00
11329;BME280;5719;42.714;23.732;2024-02-14T09:24:22;94495.59;;;5.97;100.00
11329;BME280;5719;42.714;23.732;2024-02-14T09:26:49;94501.22;;;6.03;100.00
11329;BME280;5719;42.714;23.732;2024-02-14T09:29:16;94495.50;;;5.65;100.00
11329;BME280;5719;42.714;23.732;2024-02-14T09:31:42;94501.03;;;5.58;100.00
11329;BME280;5719;42.714;23.732;2024-02-14T09:34:12;94506.09;;;5.59;100.00
11329;BME280;5719;42.714;23.732;2024-02-14T09:36:41;94508.09;;;5.70;100.00
11329;BME280;5719;42.714;23.732;2024-02-14T09:39:08;94505.38;;;5.57;100.00
11329;BME280;5719;42.714;23.732;2024-02-14T09:41:37;94496.91;;;5.55;100.00
11329;BME280;5719;42.714;23.732;2024-02-14T09:44:06;94504.00;;;5.50;100.00
11329;BME280;5719;42.714;23.732;2024-02-14T09:46:35;94502.38;;;5.49;100.00
11329;BME280;5719;42.714;23.732;2024-02-14T09:49:03;94501.69;;;5.46;100.00
11329;BME280;5719;42.714;23.732;2024-02-14T09:51:30;94493.06;;;5.31;100.00
11329;BME280;5719;42.714;23.732;2024-02-14T09:53:59;94499.88;;;5.48;100.00
11329;BME280;5719;42.714;23.732;2024-02-14T09:56:28;94500.69;;;5.48;100.00
11329;BME280;5719;42.714;23.732;2024-02-14T09:58:55;94498.88;;;5.50;100.00
11329;BME280;5719;42.714;23.732;2024-02-14T10:01:22;94493.13;;;5.62;100.00
11329;BME280;5719;42.714;23.732;2024-02-14T10:03:49;94492.38;;;5.60;100.00
11329;BME280;5719;42.714;23.732;2024-02-14T10:06:17;94495.09;;;5.57;100.00
11329;BME280;5719;42.714;23.732;2024-02-14T10:08:45;94499.75;;;5.66;100.00
11329;BME280;5719;42.714;23.732;2024-02-14T10:11:13;94493.59;;;5.69;100.00
11329;BME280;5719;42.714;23.732;2024-02-14T10:13:44;94491.63;;;5.74;100.00
11329;BME280;5719;42.714;23.732;2024-02-14T10:16:12;94496.00;;;5.56;100.00
11329;BME280;5719;42.714;23.732;2024-02-14T10:18:39;94498.13;;;5.48;100.00
11329;BME280;5719;42.714;23.732;2024-02-14T10:21:06;94488.22;;;5.25;100.00
11329;BME280;5719;42.714;23.732;2024-02-14T10:23:32;94500.75;;;5.14;100.00
11329;BME280;5719;42.714;23.732;2024-02-14T10:29:29;94501.41;;;5.02;100.00
11329;BME280;5719;42.714;23.732;2024-02-14T10:31:56;94503.66;;;4.90;100.00
11329;BME280;5719;42.714;23.732;2024-02-14T10:34:24;94500.69;;;4.81;100.00
11329;BME280;5719;42.714;23.732;2024-02-14T10:36:52;94498.03;;;4.84;100.00
11329;BME280;5719;42.714;23.732;2024-02-14T10:39:20;94493.25;;;4.93;100.00
11329;BME280;5719;42.714;23.732;2024-02-14T10:41:48;94498.31;;;4.95;100.00
11329;BME280;5719;42.714;23.732;2024-02-14T10:44:15;94494.59;;;5.01;100.00
11329;BME280;5719;42.714;23.732;2024-02-14T10:47:00;94508.03;;;5.06;100.00
11329;BME280;5719;42.714;23.732;2024-02-14T10:49:29;94499.84;;;5.15;100.00
11329;BME280;5719;42.714;23.732;2024-02-14T10:51:58;94509.06;;;5.02;100.00
11329;BME280;5719;42.714;23.732;2024-02-14T10:54:29;94508.19;;;5.03;100.00
11329;BME280;5719;42.714;23.732;2024-02-14T10:56:58;94517.22;;;5.10;100.00
11329;BME280;5719;42.714;23.732;2024-02-14T10:59:30;94516.25;;;4.95;100.00
11329;BME280;5719;42.714;23.732;2024-02-14T11:01:58;94507.63;;;4.96;100.00
11329;BME280;5719;42.714;23.732;2024-02-14T11:04:25;94516.59;;;5.05;100.00
11329;BME280;5719;42.714;23.732;2024-02-14T11:10:18;94512.59;;;5.16;100.00
11329;BME280;5719;42.714;23.732;2024-02-14T11:12:46;94513.72;;;5.11;100.00
11329;BME280;5719;42.714;23.732;2024-02-14T11:15:16;94513.81;;;5.09;100.00
11329;BME280;5719;42.714;23.732;2024-02-14T11:17:45;94511.38;;;5.23;100.00
11329;BME280;5719;42.714;23.732;2024-02-14T11:20:16;94501.19;;;5.39;100.00
11329;BME280;5719;42.714;23.732;2024-02-14T11:22:57;94497.53;;;5.43;100.00
11329;BME280;5719;42.714;23.732;2024-02-14T11:25:29;94481.53;;;5.55;100.00
11329;BME280;5719;42.714;23.732;2024-02-14T11:27:59;94493.13;;;5.62;100.00
11329;BME280;5719;42.714;23.732;2024-02-14T11:30:31;94497.59;;;5.74;100.00
11329;BME280;5719;42.714;23.732;2024-02-14T11:33:16;94500.06;;;5.93;100.00
11329;BME280;5719;42.714;23.732;2024-02-14T11:35:45;94495.66;;;5.95;100.00
11329;BME280;5719;42.714;23.732;2024-02-14T11:38:12;94483.91;;;5.91;100.00
11329;BME280;5719;42.714;23.732;2024-02-14T11:40:40;94505.81;;;6.12;100.00
11329;BME280;5719;42.714;23.732;2024-02-14T11:43:11;94491.59;;;6.22;100.00
11329;BME280;5719;42.714;23.732;2024-02-14T11:45:38;94492.75;;;6.48;100.00
11329;BME280;5719;42.714;23.732;2024-02-14T11:54:53;94504.16;;;6.58;100.00
11329;BME280;5719;42.714;23.732;2024-02-14T11:57:21;94498.78;;;6.47;100.00
11329;BME280;5719;42.714;23.732;2024-02-14T11:59:49;94487.84;;;6.44;100.00
11329;BME280;5719;42.714;23.732;2024-02-14T12:02:18;94495.38;;;6.47;100.00
11329;BME280;5719;42.714;23.732;2024-02-14T12:04:46;94503.75;;;6.34;100.00
11329;BME280;5719;42.714;23.732;2024-02-14T12:07:16;94496.88;;;6.35;100.00
11329;BME280;5719;42.714;23.732;2024-02-14T12:09:43;94494.38;;;6.49;100.00
11329;BME280;5719;42.714;23.732;2024-02-14T12:12:11;94494.78;;;6.57;100.00
11329;BME280;5719;42.714;23.732;2024-02-14T12:14:38;94501.66;;;6.57;99.78
11329;BME280;5719;42.714;23.732;2024-02-14T12:17:05;94498.72;;;6.33;100.00
11329;BME280;5719;42.714;23.732;2024-02-14T12:19:32;94496.16;;;6.17;100.00
11329;BME280;5719;42.714;23.732;2024-02-14T12:22:00;94493.25;;;6.23;100.00
11329;BME280;5719;42.714;23.732;2024-02-14T12:24:28;94501.34;;;6.16;100.00
11329;BME280;5719;42.714;23.732;2024-02-14T12:26:55;94500.69;;;6.28;100.00
11329;BME280;5719;42.714;23.732;2024-02-14T12:29:24;94500.22;;;6.21;100.00
11329;BME280;5719;42.714;23.732;2024-02-14T12:31:52;94499.06;;;6.11;100.00
11329;BME280;5719;42.714;23.732;2024-02-14T12:34:29;94484.97;;;6.03;100.00
11329;BME280;5719;42.714;23.732;2024-02-14T12:47:02;94495.38;;;5.84;100.00
11329;BME280;5719;42.714;23.732;2024-02-14T12:49:29;94485.72;;;5.89;100.00
11329;BME280;5719;42.714;23.732;2024-02-14T12:51:57;94501.78;;;5.93;100.00
11329;BME280;5719;42.714;23.732;2024-02-14T12:54:23;94497.72;;;5.88;100.00
11329;BME280;5719;42.714;23.732;2024-02-14T12:56:52;94504.59;;;5.88;100.00
11329;BME280;5719;42.714;23.732;2024-02-14T12:59:19;94489.91;;;5.74;100.00
11329;BME280;5719;42.714;23.732;2024-02-14T13:01:46;94508.13;;;5.85;100.00
11329;BME280;5719;42.714;23.732;2024-02-14T13:04:15;94510.69;;;5.85;100.00
11329;BME280;5719;42.714;23.732;2024-02-14T13:06:42;94506.16;;;5.90;100.00
11329;BME280;5719;42.714;23.732;2024-02-14T13:09:09;94515.69;;;5.88;100.00
11329;BME280;5719;42.714;23.732;2024-02-14T13:11:36;94505.97;;;5.78;100.00
11329;BME280;5719;42.714;23.732;2024-02-14T13:14:03;94513.81;;;5.75;100.00
11329;BME280;5719;42.714;23.732;2024-02-14T13:16:30;94517.28;;;5.74;100.00
11329;BME280;5719;42.714;23.732;2024-02-14T13:18:57;94513.84;;;5.90;100.00
11329;BME280;5719;42.714;23.732;2024-02-14T13:21:25;94510.03;;;5.82;100.00
11329;BME280;5719;42.714;23.732;2024-02-14T13:23:52;94513.63;;;5.95;100.00
11329;BME280;5719;42.714;23.732;2024-02-14T13:26:19;94506.78;;;5.78;100.00
11329;BME280;5719;42.714;23.732;2024-02-14T13:28:46;94512.66;;;5.80;100.00
11329;BME280;5719;42.714;23.732;2024-02-14T13:31:12;94515.19;;;5.98;100.00
11329;BME280;5719;42.714;23.732;2024-02-14T13:33:39;94500.38;;;6.03;100.00
11329;BME280;5719;42.714;23.732;2024-02-14T13:36:07;94523.81;;;6.28;100.00
11329;BME280;5719;42.714;23.732;2024-02-14T13:42:00;94520.97;;;6.48;100.00
11329;BME280;5719;42.714;23.732;2024-02-14T13:44:27;94521.13;;;6.45;100.00
11329;BME280;5719;42.714;23.732;2024-02-14T13:46:55;94521.28;;;6.58;100.00
11329;BME280;5719;42.714;23.732;2024-02-14T13:49:22;94524.16;;;6.67;100.00
11329;BME280;5719;42.714;23.732;2024-02-14T13:51:48;94531.69;;;6.70;100.00
11329;BME280;5719;42.714;23.732;2024-02-14T13:54:15;94535.50;;;6.79;100.00
11329;BME280;5719;42.714;23.732;2024-02-14T13:56:42;94531.66;;;6.86;100.00
11329;BME280;5719;42.714;23.732;2024-02-14T13:59:11;94528.25;;;6.85;100.00
11329;BME280;5719;42.714;23.732;2024-02-14T14:01:38;94528.09;;;6.88;99.42
11329;BME280;5719;42.714;23.732;2024-02-14T14:04:05;94540.78;;;6.92;98.19
11329;BME280;5719;42.714;23.732;2024-02-14T14:06:31;94539.63;;;6.81;98.87
11329;BME280;5719;42.714;23.732;2024-02-14T14:08:59;94536.91;;;6.84;99.19